Time,TemperatureF,DewpointF,PressureIn,WindDirection,WindDirectionDegrees,WindSpeedMPH,WindSpeedGustMPH,Humidity,HourlyPrecipIn,Conditions,Clouds,dailyrainin,SoftwareType,DateUTC
2015-08-29 00:00:00,57.0,-99.9,-100.00,SE,134,4.0,7.0,-999,-99.99,,,-99.99,,2015-08-29 06:00:00,
2015-08-29 00:54:00,57.0,-99.9,-100.00,SE,134,4.0,7.0,-999,-99.99,,,-99.99,,2015-08-29 06:54:00,
2015-08-29 01:00:00,55.0,-99.9,-100.00,ESE,112,3.0,6.0,-999,-99.99,,,-99.99,,2015-08-29 07:00:00,
2015-08-29 01:54:00,55.0,-99.9,-100.00,ESE,112,3.0,6.0,-999,-99.99,,,-99.99,,2015-08-29 07:54:00,
2015-08-29 02:00:00,50.0,-99.9,-100.00,SSE,150,2.0,3.0,-999,-99.99,,,-99.99,,2015-08-29 08:00:00,
2015-08-29 02:54:00,50.0,-99.9,-100.00,SSE,150,2.0,3.0,-999,-99.99,,,-99.99,,2015-08-29 08:54:00,
2015-08-29 03:00:00,48.0,-99.9,-100.00,NE,44,2.0,2.0,-999,-99.99,,,-99.99,,2015-08-29 09:00:00,
2015-08-29 03:54:00,48.0,-99.9,-100.00,NE,44,2.0,2.0,-999,-99.99,,,-99.99,,2015-08-29 09:54:00,
2015-08-29 08:00:00,54.0,-99.9,-100.00,West,279,3.0,4.0,-999,-99.99,,,-99.99,,2015-08-29 14:00:00,
2015-08-29 08:54:00,54.0,-99.9,-100.00,West,279,3.0,4.0,-999,-99.99,,,-99.99,,2015-08-29 14:54:00,
2015-08-29 10:00:00,73.0,-99.9,-100.00,SW,236,8.0,10.0,-999,-99.99,,,-99.99,,2015-08-29 16:00:00,
2015-08-29 10:55:00,73.0,-99.9,-100.00,SW,236,8.0,10.0,-999,-99.99,,,-99.99,,2015-08-29 16:55:00,
2015-08-29 11:00:00,75.0,-99.9,-100.00,East,89,1.0,11.0,-999,-99.99,,,-99.99,,2015-08-29 17:00:00,
2015-08-29 11:55:00,75.0,-99.9,-100.00,East,89,1.0,11.0,-999,-99.99,,,-99.99,,2015-08-29 17:55:00,
2015-08-29 12:00:00,73.0,-99.9,-100.00,East,95,10.0,12.0,-999,-99.99,,,-99.99,,2015-08-29 18:00:00,
2015-08-29 12:54:00,73.0,-99.9,-100.00,East,95,10.0,12.0,-999,-99.99,,,-99.99,,2015-08-29 18:54:00,
2015-08-29 13:00:00,73.0,-99.9,-100.00,SSW,213,13.0,18.0,-999,-99.99,,,-99.99,,2015-08-29 19:00:00,
2015-08-29 14:00:00,77.0,-99.9,-100.00,SSE,160,12.0,17.0,-999,-99.99,,,-99.99,,2015-08-29 20:00:00,
2015-08-29 14:54:00,77.0,-99.9,-100.00,SSE,160,12.0,17.0,-999,-99.99,,,-99.99,,2015-08-29 20:54:00,
2015-08-29 15:57:00,81.0,-99.9,-100.00,NW,308,8.0,9.0,-999,-99.99,,,-99.99,,2015-08-29 21:57:00,
2015-08-29 16:00:00,75.0,-99.9,-100.00,NNE,18,5.0,21.0,-999,-99.99,,,-99.99,,2015-08-29 22:00:00,
2015-08-29 16:54:00,75.0,-99.9,-100.00,NNE,18,5.0,21.0,-999,-99.99,,,-99.99,,2015-08-29 22:54:00,
2015-08-29 17:00:00,73.0,-99.9,-100.00,SE,137,13.0,22.0,-999,-99.99,,,-99.99,,2015-08-29 23:00:00,
2015-08-29 18:00:00,72.0,-99.9,-100.00,SSE,156,18.0,21.0,-999,-99.99,,,-99.99,,2015-08-30 00:00:00,
2015-08-29 18:54:00,72.0,-99.9,-100.00,SSE,156,18.0,21.0,-999,-99.99,,,-99.99,,2015-08-30 00:54:00,
2015-08-29 19:00:00,70.0,-99.9,-100.00,SSE,152,9.0,19.0,-999,-99.99,,,-99.99,,2015-08-30 01:00:00,
2015-08-29 19:54:00,70.0,-99.9,-100.00,SSE,152,9.0,19.0,-999,-99.99,,,-99.99,,2015-08-30 01:54:00,
2015-08-29 20:00:00,68.0,-99.9,-100.00,SSE,150,5.0,8.0,-999,-99.99,,,-99.99,,2015-08-30 02:00:00,
2015-08-29 20:54:00,68.0,-99.9,-100.00,SSE,150,5.0,8.0,-999,-99.99,,,-99.99,,2015-08-30 02:54:00,
2015-08-29 21:00:00,64.0,-99.9,-100.00,SSE,153,5.0,7.0,-999,-99.99,,,-99.99,,2015-08-30 03:00:00,
2015-08-29 21:53:00,64.0,-99.9,-100.00,North,-9999,-999.9,-999.0,-999,-99.99,,,-99.99,,2015-08-30 03:53:00,